• Join FlightAware (Why Join?)
  • Login
  • US Flag 
11:26PM EDT


 

Airport Tracker/Info


-or-


 

Live Flight TrackerFlight Track Log ✈ UAL1006 ✈ 11-Jun-2013 ✈ SKBO / BOG - KIAH

Flight Track Log - Related Links

Times and Time Zones

All times are in EDT time to prevent confusion due to time zone crossing. See the UAL1006 flight status page for this flight to view local times or setup timezone preferences in your user account.

Time Position Orientation Groundspeed Altitude Reporting Facility
EDT Latitude Longitude Course Direction KTS MPH feet Rate Location/Type
01:43AM 5.1142 -74.4108 328° Northwest  Level FlightAware Approximate
01:44AM 5.2174 -74.4768 327° Northwest  Level FlightAware Approximate
01:45AM 5.3205 -74.5429 327° Northwest  Level FlightAware Approximate
01:46AM 5.4236 -74.6089 327° Northwest  Level FlightAware Approximate
01:47AM 5.5267 -74.6750 327° Northwest  Level FlightAware Approximate
01:48AM 5.6298 -74.7411 327° Northwest  Level FlightAware Approximate
01:49AM 5.7330 -74.8072 327° Northwest  Level FlightAware Approximate
01:50AM 5.8361 -74.8734 327° Northwest  Level FlightAware Approximate
01:51AM 5.9391 -74.9396 327° Northwest  Level FlightAware Approximate
01:52AM 6.0422 -75.0058 327° Northwest  Level FlightAware Approximate
01:53AM 6.1453 -75.0720 327° Northwest  Level FlightAware Approximate
01:54AM 6.2484 -75.1382 327° Northwest  Level FlightAware Approximate
01:55AM 6.3434 -75.2010 327° Northwest  Level FlightAware Approximate
01:56AM 6.4454 -75.2688 327° Northwest  Level FlightAware Approximate
01:57AM 6.5475 -75.3367 327° Northwest  Level FlightAware Approximate
01:58AM 6.6495 -75.4045 327° Northwest  Level FlightAware Approximate
01:59AM 6.7516 -75.4725 327° Northwest  Level FlightAware Approximate
02:00AM 6.8536 -75.5404 327° Northwest  Level FlightAware Approximate
02:01AM 6.9556 -75.6084 327° Northwest  Level FlightAware Approximate
02:02AM 7.0576 -75.6764 327° Northwest  Level FlightAware Approximate
02:03AM 7.1596 -75.7444 327° Northwest  Level FlightAware Approximate
02:04AM 7.2616 -75.8125 326° Northwest  Level FlightAware Approximate
02:05AM 7.3636 -75.8806 326° Northwest  Level FlightAware Approximate
02:06AM 7.4655 -75.9487 326° Northwest  Level FlightAware Approximate
02:07AM 7.5675 -76.0169 326° Northwest  Level FlightAware Approximate
02:08AM 7.6694 -76.0851 326° Northwest  Level FlightAware Approximate
02:09AM 7.7717 -76.1528 327° Northwest  Level FlightAware Approximate
02:10AM 7.8742 -76.2201 327° Northwest  Level FlightAware Approximate
02:11AM 7.9767 -76.2875 327° Northwest  Level FlightAware Approximate
02:12AM 8.0793 -76.3548 327° Northwest  Level FlightAware Approximate
02:13AM 8.1818 -76.4222 327° Northwest  Level FlightAware Approximate
02:14AM 8.2843 -76.4897 327° Northwest  Level FlightAware Approximate
02:15AM 8.3867 -76.5572 327° Northwest  Level FlightAware Approximate
02:16AM 8.4892 -76.6247 327° Northwest  Level FlightAware Approximate
02:17AM 8.5906 -76.6916 327° Northwest  Level FlightAware Approximate
02:18AM 8.6919 -76.7584 327° Northwest  Level FlightAware Approximate
02:19AM 8.7932 -76.8253 327° Northwest  Level FlightAware Approximate
02:19AM 7.9340 -77.0970 327° Northwest 458 527 36,000  Level FlightAware
02:20AM 8.8945 -76.8923 327° Northwest  Level FlightAware Approximate
02:20AM 8.0280 -77.1390 336° Northwest 457 526 36,000  Level FlightAware
02:22AM 8.2235 -77.2796 325° Northwest  Level Estimated
02:23AM 8.3220 -77.3506 325° Northwest  Level Estimated
02:24AM 8.4205 -77.4216 325° Northwest  Level Estimated
02:25AM 8.5190 -77.4927 325° Northwest  Level Estimated
02:26AM 8.6175 -77.5637 324° Northwest  Level Estimated
02:27AM 8.7160 -77.6348 324° Northwest  Level Estimated
02:28AM 8.8145 -77.7060 324° Northwest  Level Estimated
02:29AM 8.9129 -77.7772 324° Northwest  Level Estimated
02:30AM 9.0113 -77.8484 324° Northwest  Level Estimated
02:30AM 9.0310 -77.8900 324° Northwest 446 513 36,000  Level FlightAware
02:31AM 9.0930 -77.9930 301° West 447 514 36,000  Level FlightAware
02:31AM 9.1370 -78.0680 301° West 447 514 36,000  Level FlightAware
02:32AM 9.1870 -78.1460 303° West 36,000  Level FlightAware
02:33AM 9.2350 -78.2310 300° West 452 520 36,000  Level FlightAware
02:33AM 9.2760 -78.3030 300° West 450 518 36,000  Level FlightAware
02:34AM 9.3210 -78.3810 300° West 451 519 36,000  Level FlightAware
02:35AM 9.3710 -78.4470 308° West 446 513 36,000  Level FlightAware
02:36AM 9.4530 -78.4920 332° Northwest 451 519 36,000  Level FlightAware
02:36AM 9.5290 -78.5330 332° Northwest 442 509 36,000  Level FlightAware
02:37AM 9.6040 -78.5720 333° Northwest 450 518 36,000  Level FlightAware
02:38AM 9.6880 -78.6170 332° Northwest 450 518 36,000  Level FlightAware
02:38AM 9.7690 -78.6640 330° Northwest 443 510 36,000  Level FlightAware
02:39AM 9.8300 -78.7230 316° Northwest 450 518 36,000  Level FlightAware
02:40AM 9.8880 -78.7850 314° West 450 518 36,000  Level FlightAware
02:40AM 9.9450 -78.8460 313° West 449 517 36,000  Level FlightAware
02:41AM 10.0100 -78.9150 314° West 448 516 36,000  Level FlightAware
02:42AM 10.0610 -78.9700 313° West 447 514 36,000  Level FlightAware
02:43AM 10.1260 -79.0390 314° West 447 514 36,000  Level FlightAware
02:43AM 10.1890 -79.1070 313° West 446 513 36,000  Level FlightAware
02:44AM 10.2460 -79.1680 314° West 446 513 36,000  Level FlightAware
02:45AM 10.3120 -79.2380 314° West 446 513 36,000  Level FlightAware
02:45AM 10.3680 -79.2990 313° West 446 513 36,000  Level FlightAware
02:46AM 10.4270 -79.3630 313° West 447 514 36,000  Level FlightAware
02:47AM 10.4860 -79.4260 314° West 447 514 36,000  Level FlightAware
02:47AM 10.5430 -79.4870 314° West 447 514 36,000  Level FlightAware
02:48AM 10.6070 -79.5560 313° West 449 517 36,000  Level FlightAware
02:49AM 10.6650 -79.6180 314° West 449 517 36,000  Level FlightAware
02:50AM 10.7230 -79.6800 314° West 447 514 36,000  Level FlightAware
02:50AM 10.7790 -79.7420 313° West 445 512 36,000  Level FlightAware
02:51AM 10.8590 -79.8270 314° West 444 511 36,000  Level FlightAware
02:52AM 10.9220 -79.8950 313° West 445 512 36,000  Level FlightAware
02:53AM 11.0070 -79.9870 313° West 447 514 36,000  Level FlightAware
02:54AM 11.0640 -80.0490 313° West 448 516 36,000  Level FlightAware
02:54AM 11.1190 -80.1090 313° West 449 517 36,000  Level FlightAware
02:55AM 11.1770 -80.1720 313° West 449 517 36,000  Level FlightAware
02:56AM 11.2560 -80.2570 313° West 448 516 36,000  Level FlightAware
02:57AM 11.3130 -80.3190 313° West 446 513 36,000  Level FlightAware
02:57AM 11.3780 -80.3890 313° West 445 512 36,000  Level FlightAware
02:58AM 11.4410 -80.4570 313° West 445 512 36,000  Level FlightAware
02:59AM 11.4950 -80.5160 313° West 445 512 36,000  Level FlightAware
02:59AM 11.5520 -80.5790 313° West 445 512 36,000  Level FlightAware
03:00AM 11.5950 -80.6260 313° West 445 512 36,000  Level FlightAware
03:01AM 11.6530 -80.6880 314° West 445 512 36,000  Level FlightAware
03:02AM 11.7080 -80.7480 313° West 445 512 36,000  Level FlightAware
03:02AM 11.7500 -80.7960 312° West 445 512 36,000  Level FlightAware
03:03AM 11.8080 -80.8580 314° West 445 512 36,000  Level FlightAware
03:04AM 11.8510 -80.9050 313° West 445 512 36,000  Level FlightAware
03:04AM 11.9080 -80.9680 313° West 445 512 36,000  Level FlightAware
03:05AM 11.9510 -81.0150 313° West 445 512 36,000  Level FlightAware
03:08AM 12.2061 -81.1925 326° Northwest  Level Estimated
03:09AM 12.3061 -81.2622 326° Northwest  Level Estimated
03:10AM 12.4061 -81.3320 326° Northwest  Level Estimated
03:11AM 12.5060 -81.4018 326° Northwest  Level Estimated
03:12AM 12.6060 -81.4717 326° Northwest  Level Estimated
03:13AM 12.7059 -81.5416 326° Northwest  Level Estimated
03:14AM 12.8058 -81.6116 326° Northwest  Level Estimated
03:15AM 12.9057 -81.6816 326° Northwest  Level Estimated
03:16AM 13.0056 -81.7517 326° Northwest  Level Estimated
03:17AM 13.1054 -81.8219 326° Northwest  Level Estimated
03:18AM 13.2053 -81.8921 326° Northwest  Level Estimated
03:19AM 13.3051 -81.9623 326° Northwest  Level Estimated
03:20AM 13.4049 -82.0327 326° Northwest  Level Estimated
03:21AM 13.5047 -82.1031 326° Northwest  Level Estimated
03:22AM 13.6044 -82.1735 326° Northwest  Level Estimated
03:23AM 13.7042 -82.2440 326° Northwest  Level Estimated
03:24AM 13.8039 -82.3146 326° Northwest  Level Estimated
03:25AM 13.9036 -82.3852 325° Northwest  Level Estimated
03:26AM 14.0033 -82.4558 325° Northwest  Level Estimated
03:27AM 14.1029 -82.5266 325° Northwest  Level Estimated
03:28AM 14.2026 -82.5974 325° Northwest  Level Estimated
03:29AM 14.3022 -82.6683 325° Northwest  Level Estimated
03:30AM 14.4018 -82.7392 325° Northwest  Level Estimated
03:31AM 14.5013 -82.8102 325° Northwest  Level Estimated
03:32AM 14.6009 -82.8812 325° Northwest  Level Estimated
03:33AM 14.7004 -82.9523 325° Northwest  Level Estimated
03:34AM 14.7999 -83.0235 325° Northwest  Level Estimated
03:35AM 14.8994 -83.0948 325° Northwest  Level Estimated
03:36AM 14.9989 -83.1661 325° Northwest  Level Estimated
03:37AM 15.0983 -83.2375 325° Northwest  Level Estimated
03:38AM 15.1977 -83.3089 325° Northwest  Level Estimated
03:39AM 15.2971 -83.3804 325° Northwest  Level Estimated
03:40AM 15.3965 -83.4520 325° Northwest  Level Estimated
03:41AM 15.4959 -83.5237 325° Northwest  Level Estimated
03:42AM 15.5952 -83.5954 325° Northwest  Level Estimated
03:43AM 15.6945 -83.6672 325° Northwest  Level Estimated
03:44AM 15.7938 -83.7391 325° Northwest  Level Estimated
03:45AM 15.8931 -83.8110 325° Northwest  Level Estimated
03:46AM 15.9923 -83.8830 325° Northwest  Level Estimated
03:47AM 16.0915 -83.9550 325° Northwest  Level Estimated
03:48AM 16.1907 -84.0272 325° Northwest  Level Estimated
03:49AM 16.2898 -84.0994 325° Northwest  Level Estimated
03:50AM 16.3890 -84.1717 325° Northwest  Level Estimated
03:51AM 16.4881 -84.2441 325° Northwest  Level Estimated
03:52AM 16.5872 -84.3165 325° Northwest  Level Estimated
03:53AM 16.6862 -84.3890 325° Northwest  Level Estimated
03:54AM 16.7853 -84.4616 325° Northwest  Level Estimated
03:55AM 16.8843 -84.5343 325° Northwest  Level Estimated
03:56AM 16.9826 -84.6065 325° Northwest  Level Estimated
03:57AM 17.0808 -84.6788 325° Northwest  Level Estimated
03:58AM 17.1791 -84.7512 325° Northwest  Level Estimated
03:59AM 17.2773 -84.8236 325° Northwest  Level Estimated
04:00AM 17.3755 -84.8961 325° Northwest  Level Estimated
04:01AM 17.4736 -84.9688 325° Northwest  Level Estimated
04:02AM 17.5717 -85.0414 325° Northwest  Level Estimated
04:03AM 17.6698 -85.1142 325° Northwest  Level Estimated
04:04AM 17.7679 -85.1870 325° Northwest  Level Estimated
04:05AM 17.8659 -85.2600 325° Northwest  Level Estimated
04:06AM 17.9640 -85.3330 325° Northwest  Level Estimated
04:07AM 18.0620 -85.4060 325° Northwest  Level Estimated
04:08AM 18.1599 -85.4792 325° Northwest  Level Estimated
04:09AM 18.2579 -85.5525 325° Northwest  Level Estimated
04:10AM 18.3558 -85.6258 325° Northwest  Level Estimated
04:10AM 18.4110 -85.6370 325° Northwest 417 480 36,000  Level FlightAware
04:11AM 18.4536 -85.6992 325° Northwest  Level Estimated
04:11AM 18.4750 -85.6760 330° Northwest 417 480 36,000  Level FlightAware
04:12AM 18.5910 -85.7450 331° Northwest 416 479 36,000  Level FlightAware
04:13AM 18.6420 -85.7770 329° Northwest 416 479 36,000  Level FlightAware
04:14AM 18.7560 -85.8460 330° Northwest 417 480 36,000  Level FlightAware
04:14AM 18.8070 -85.8790 329° Northwest 417 480 36,000 1,080 Level FlightAware
04:15AM 18.9010 -85.9320 332° Northwest 423 487 37,400 1,020 Climbing FlightAware
04:16AM 19.0310 -86.0110 330° Northwest 419 482 38,000 240 Climbing FlightAware
04:17AM 19.0950 -86.0490 331° Northwest 420 483 38,000  Level FlightAware
04:18AM 19.1610 -86.0890 330° Northwest 419 482 38,000  Level FlightAware
04:18AM 19.2440 -86.1400 330° Northwest 420 483 38,000  Level FlightAware
04:19AM 19.3220 -86.1870 330° Northwest 420 483 38,000  Level FlightAware
04:20AM 19.3720 -86.2180 330° Northwest 420 483 38,000  Level FlightAware
04:21AM 19.4910 -86.2900 330° Northwest 418 481 38,000  Level FlightAware
04:22AM 19.5820 -86.3450 330° Northwest 419 482 38,000  Level FlightAware
04:23AM 19.6750 -86.4020 330° Northwest 419 482 38,000  Level FlightAware
04:23AM 19.7320 -86.4360 331° Northwest 420 483 38,000  Level FlightAware
04:24AM 19.8090 -86.4830 330° Northwest 420 483 38,000  Level FlightAware
04:25AM 19.9310 -86.5580 330° Northwest 421 484 38,000  Level FlightAware
04:26AM 19.9890 -86.5940 330° Northwest 422 486 38,000  Level FlightAware
04:27AM 20.0690 -86.6430 330° Northwest 423 487 38,000  Level FlightAware
04:28AM 20.1650 -86.7020 330° Northwest 425 489 38,000  Level FlightAware
04:28AM 20.2160 -86.7350 329° Northwest 425 489 38,000  Level FlightAware
04:29AM 20.2850 -86.7790 329° Northwest 425 489 38,000  Level FlightAware
04:30AM 20.3870 -86.8380 332° Northwest 427 491 38,000  Level FlightAware
04:30AM 20.4480 -86.8750 330° Northwest 427 491 38,000  Level FlightAware
04:31AM 20.5270 -86.9250 329° Northwest 427 491 38,000  Level FlightAware
04:32AM 20.5980 -86.9760 326° Northwest 427 491 38,000  Level FlightAware
04:32AM 20.6690 -87.0270 326° Northwest 426 490 38,000  Level FlightAware
04:33AM 20.7410 -87.0780 326° Northwest 426 490 38,000  Level FlightAware
04:34AM 20.8060 -87.1250 326° Northwest 426 490 38,000  Level FlightAware
04:35AM 20.8770 -87.1750 327° Northwest 427 491 38,000  Level FlightAware
04:35AM 20.9500 -87.2280 326° Northwest 428 493 38,000  Level FlightAware
04:36AM 21.0280 -87.2840 326° Northwest 428 493 38,000  Level FlightAware
04:37AM 21.1310 -87.3570 327° Northwest 428 493 38,000  Level FlightAware
04:38AM 21.1860 -87.3970 326° Northwest 428 493 38,000  Level FlightAware
04:38AM 21.2650 -87.4540 326° Northwest 428 493 38,000  Level FlightAware
04:39AM 21.3290 -87.5000 326° Northwest 428 493 38,000  Level FlightAware
04:40AM 21.4190 -87.5650 326° Northwest 427 491 38,000  Level FlightAware
04:41AM 21.5000 -87.6230 326° Northwest 427 491 38,000  Level FlightAware
04:42AM 21.5630 -87.6690 326° Northwest 426 490 38,000  Level FlightAware
04:42AM 21.6340 -87.7200 326° Northwest 427 491 38,000  Level FlightAware
04:43AM 21.6900 -87.7610 326° Northwest 429 494 38,000  Level FlightAware
04:44AM 21.7730 -87.8220 326° Northwest 429 494 38,000  Level FlightAware
04:44AM 21.8290 -87.8620 326° Northwest 430 495 38,000  Level FlightAware
04:45AM 21.9100 -87.9220 326° Northwest 431 496 38,000  Level FlightAware
04:46AM 21.9860 -87.9790 325° Northwest 431 496 38,000  Level FlightAware
04:46AM 22.0420 -88.0210 325° Northwest 430 495 38,000  Level FlightAware
04:47AM 22.1160 -88.0760 325° Northwest 430 495 38,000  Level FlightAware
04:48AM 22.1870 -88.1280 326° Northwest 431 496 38,000  Level FlightAware
04:48AM 22.2550 -88.1780 326° Northwest 430 495 38,000  Level FlightAware
04:49AM 22.3170 -88.2230 326° Northwest 429 494 38,000  Level FlightAware
04:50AM 22.3850 -88.2730 326° Northwest 428 493 38,000  Level FlightAware
04:51AM 22.4650 -88.3320 326° Northwest 429 494 38,000  Level FlightAware
04:51AM 22.5390 -88.3860 326° Northwest 431 496 38,000  Level FlightAware
04:52AM 22.5990 -88.4300 326° Northwest 431 496 38,000  Level FlightAware
04:53AM 22.6590 -88.4740 326° Northwest 431 496 38,000  Level FlightAware
04:53AM 22.7290 -88.5260 326° Northwest 431 496 38,000  Level FlightAware
04:54AM 22.7980 -88.5770 326° Northwest 431 496 38,000  Level FlightAware
04:55AM 22.8800 -88.6370 326° Northwest 428 493 38,000  Level FlightAware
04:55AM 22.9430 -88.6840 326° Northwest 426 490 38,000  Level FlightAware
04:56AM 23.0190 -88.7400 326° Northwest 426 490 38,000  Level FlightAware
04:57AM 23.0860 -88.7900 326° Northwest 425 489 38,000  Level FlightAware
04:58AM 23.1460 -88.8340 326° Northwest 424 488 38,000  Level FlightAware
04:58AM 23.2220 -88.8910 325° Northwest 423 487 38,000  Level FlightAware
04:59AM 23.2940 -88.9450 325° Northwest 422 486 38,000  Level FlightAware
05:00AM 23.3640 -88.9970 326° Northwest 423 487 38,000  Level FlightAware
05:00AM 23.4170 -89.0370 325° Northwest 424 488 38,000  Level FlightAware
05:01AM 23.4920 -89.0920 326° Northwest 426 490 38,000  Level FlightAware
05:02AM 23.5670 -89.1480 326° Northwest 426 490 38,000  Level FlightAware
05:03AM 23.5930 -89.1680 325° Northwest 426 490 38,000  Level FlightAware
05:03AM 23.6360 -89.2010 325° Northwest 426 490 38,000  Level FlightAware
05:04AM 23.6930 -89.2440 325° Northwest 426 490 38,000  Level FlightAware
05:05AM 23.7720 -89.3030 326° Northwest 426 490 38,000  Level FlightAware
05:05AM 23.8410 -89.3560 325° Northwest 426 490 38,000  Level FlightAware
05:06AM 23.9080 -89.4050 326° Northwest 427 491 38,000  Level FlightAware
05:07AM 23.9620 -89.4460 325° Northwest 427 491 38,000  Level FlightAware
05:07AM 24.0280 -89.4970 325° Northwest 427 491 38,000  Level FlightAware
05:08AM 24.1260 -89.5680 327° Northwest 427 491 38,000  Level FlightAware
05:09AM 24.1780 -89.6080 325° Northwest 427 491 38,000  Level FlightAware
05:10AM 24.2450 -89.6600 325° Northwest 427 491 38,000  Level FlightAware
05:10AM 24.2920 -89.6960 325° Northwest 427 491 38,000  Level FlightAware
05:11AM 24.3720 -89.7570 325° Northwest 427 491 38,000  Level FlightAware
05:12AM 24.4210 -89.7950 325° Northwest 427 491 38,000  Level FlightAware
05:13AM 24.4870 -89.8460 325° Northwest 427 491 38,000  Level FlightAware
05:13AM 24.5370 -89.8840 325° Northwest 427 491 38,000  Level FlightAware
05:14AM 24.6030 -89.9350 325° Northwest 427 491 38,000  Level FlightAware
05:15AM 24.6520 -89.9730 325° Northwest 427 491 38,000  Level FlightAware
05:15AM 24.7170 -90.0230 325° Northwest 427 491 38,000  Level FlightAware
05:16AM 24.7670 -90.0610 325° Northwest 427 491 38,000  Level FlightAware
05:17AM 24.8340 -90.1130 325° Northwest 427 491 38,000  Level FlightAware
05:17AM 24.8850 -90.1530 325° Northwest 427 491 38,000  Level FlightAware
05:18AM 24.9340 -90.1910 325° Northwest 427 491 38,000  Level FlightAware
05:21AM 25.1813 -90.3776 326° Northwest  Level FlightAware Approximate
05:22AM 25.2779 -90.4499 326° Northwest  Level FlightAware Approximate
05:23AM 25.3744 -90.5223 326° Northwest  Level FlightAware Approximate
05:24AM 25.4709 -90.5948 326° Northwest  Level FlightAware Approximate
05:25AM 25.5661 -90.6695 324° Northwest  Level FlightAware Approximate
05:26AM 25.6607 -90.7452 324° Northwest  Level FlightAware Approximate
05:27AM 25.7553 -90.8209 324° Northwest  Level FlightAware Approximate
05:28AM 25.8502 -90.8963 325° Northwest  Level FlightAware Approximate
05:29AM 25.9460 -90.9702 325° Northwest  Level FlightAware Approximate
05:30AM 26.0418 -91.0442 325° Northwest  Level FlightAware Approximate
05:31AM 26.1376 -91.1183 325° Northwest  Level FlightAware Approximate
05:32AM 26.2333 -91.1926 325° Northwest  Level FlightAware Approximate
05:33AM 26.3290 -91.2670 325° Northwest  Level FlightAware Approximate
05:34AM 26.4230 -91.3440 323° Northwest  Level FlightAware Approximate
05:35AM 26.5166 -91.4218 323° Northwest  Level FlightAware Approximate
05:36AM 26.6101 -91.4997 323° Northwest  Level FlightAware Approximate
05:37AM 26.7036 -91.5778 323° Northwest  Level FlightAware Approximate
05:38AM 26.7986 -91.6535 326° Northwest  Level FlightAware Approximate
05:39AM 26.8952 -91.7267 326° Northwest  Level FlightAware Approximate
05:40AM 26.9918 -91.8001 326° Northwest  Level FlightAware Approximate
05:41AM 27.0883 -91.8736 326° Northwest  Level FlightAware Approximate
05:41AM 27.4054 -92.1302 326° Northwest 422 486 38,000  Level FlightAware ADS-B
05:42AM 27.4492 -92.1745 318° Northwest 423 487 38,000  Level FlightAware ADS-B
05:43AM 27.5269 -92.2530 318° Northwest 421 484 38,000  Level FlightAware ADS-B
05:44AM 27.6117 -92.3394 318° Northwest 421 484 38,000  Level FlightAware ADS-B
05:44AM 27.6598 -92.3882 318° Northwest 418 481 38,000  Level FlightAware ADS-B
05:45AM 27.7272 -92.4583 318° Northwest 419 482 38,000  Level Houston Center
05:46AM 27.8136 -92.5450 318° Northwest 417 480 38,000  Level Houston Center
05:47AM 27.8986 -92.6356 317° Northwest 418 481 38,000  Level Houston Center
05:48AM 27.9836 -92.7250 317° Northwest 418 481 38,000  Level Houston Center
05:49AM 28.0700 -92.8133 318° Northwest 418 481 38,000  Level Houston Center
05:50AM 28.1558 -92.9008 318° Northwest 416 479 38,000  Level Houston Center
05:51AM 28.2411 -92.9889 318° Northwest 416 479 38,000  Level Houston Center
05:52AM 28.3272 -93.0800 317° Northwest 419 482 38,000 -60 Level Houston Center
05:53AM 28.4131 -93.1653 319° Northwest 416 479 37,900  Descending Houston Center
05:54AM 28.4989 -93.2539 318° Northwest 415 478 38,000  Climbing Houston Center
05:55AM 28.5839 -93.3428 317° Northwest 417 480 38,000 -2,040 Level Houston Center
06:01AM 29.0727 -93.8542 317° Northwest 402 463 24,900 -2,340 Descending FlightAware ADS-B
06:01AM 29.1143 -93.8984 317° Northwest 396 456 23,800 -2,160 Descending FlightAware ADS-B
06:02AM 29.1552 -93.9417 317° Northwest 393 452 22,700 -2,100 Descending FlightAware ADS-B
06:02AM 29.1952 -93.9840 317° Northwest 390 449 21,700 -2,040 Descending FlightAware ADS-B
06:03AM 29.2350 -94.0265 317° Northwest 388 447 20,700 -1,920 Descending FlightAware ADS-B
06:03AM 29.2490 -94.0418 316° Northwest 387 445 20,400 -1,320 Descending FlightAware ADS-B
06:03AM 29.2856 -94.0890 312° West 396 456 19,800 -1,020 Descending FlightAware ADS-B
06:04AM 29.3222 -94.1368 311° West 397 457 19,400 -900 Descending FlightAware ADS-B
06:04AM 29.3590 -94.1845 312° West 395 455 18,900 -1,020 Descending FlightAware ADS-B
06:05AM 29.3954 -94.2321 311° West 392 451 18,400 -1,020 Descending FlightAware ADS-B
06:05AM 29.4314 -94.2791 311° West 388 447 17,900 -1,440 Descending FlightAware ADS-B
06:06AM 29.4667 -94.3250 311° West 380 437 17,000 -1,920 Descending FlightAware ADS-B
06:06AM 29.5014 -94.3704 311° West 374 430 16,000 -1,980 Descending FlightAware ADS-B
06:07AM 29.5363 -94.4154 312° West 370 426 15,000 -2,040 Descending FlightAware ADS-B
06:07AM 29.5698 -94.4596 311° West 364 419 14,000 -2,040 Descending FlightAware ADS-B
06:08AM 29.6027 -94.5029 311° West 358 412 13,000 -1,920 Descending FlightAware ADS-B
06:08AM 29.6353 -94.5455 311° West 352 405 12,100 -1,800 Descending FlightAware ADS-B
06:09AM 29.6676 -94.5879 311° West 345 397 11,200 -1,680 Descending FlightAware ADS-B
06:10AM 29.6994 -94.6299 311° West 337 388 10,400 -1,140 Descending FlightAware ADS-B
06:10AM 29.7295 -94.6694 311° West 313 360 10,100 -540 Descending FlightAware ADS-B
06:10AM 29.7436 -94.6878 311° West 302 348 10,000 -600 Descending FlightAware ADS-B
06:11AM 29.7573 -94.7061 311° West 293 337 9,800 -1,200 Descending FlightAware ADS-B
06:11AM 29.7846 -94.7420 311° West 291 335 9,100 -1,320 Descending FlightAware ADS-B
06:11AM 29.7981 -94.7598 311° West 289 333 8,800 -1,440 Descending FlightAware ADS-B
06:12AM 29.8114 -94.7773 311° West 289 333 8,400 -1,380 Descending FlightAware ADS-B
06:13AM 29.8649 -94.8479 311° West 286 329 7,100 -1,200 Descending FlightAware ADS-B
06:13AM 29.8780 -94.8651 311° West 281 323 6,900 -600 Descending FlightAware ADS-B
06:13AM 29.8909 -94.8819 312° West 271 312 6,800 -660 Descending FlightAware ADS-B
06:14AM 29.9153 -94.9145 311° West 255 293 6,400 -780 Descending FlightAware ADS-B
06:14AM 29.9359 -94.9420 311° West 246 283 6,100 -1,140 Descending FlightAware ADS-B
06:15AM 29.9679 -94.9842 311° West 245 282 5,100 -1,440 Descending FlightAware ADS-B
06:15AM 29.9701 -94.9871 311° West 242 278 5,000 -960 Descending FlightAware ADS-B
06:15AM 29.9752 -94.9984 289° West 227 261 4,900 -360 Descending FlightAware ADS-B
06:15AM 29.9768 -95.0062 281° West 218 251 4,900 -360 Level FlightAware ADS-B
06:15AM 29.9777 -95.0191 273° West 210 242 4,800 -900 Descending FlightAware ADS-B
06:15AM 29.9778 -95.0301 271° West 211 243 4,600 -1,380 Descending FlightAware ADS-B
06:16AM 29.9775 -95.0807 270° West 210 242 3,600 -1,140 Descending FlightAware ADS-B
06:17AM 29.9776 -95.1020 271° West 198 228 3,400 -900 Descending FlightAware ADS-B
06:17AM 29.9775 -95.1178 270° West 199 229 3,100 -1,140 Descending FlightAware ADS-B
06:17AM 29.9775 -95.1470 270° West 196 226 2,600 -1,080 Descending FlightAware ADS-B
06:17AM 29.9776 -95.1609 270° West 194 223 2,400 -1,080 Descending FlightAware ADS-B
06:18AM 29.9776 -95.1773 270° West 192 221 2,100 -1,260 Descending FlightAware ADS-B
06:18AM 29.9776 -95.1858 270° West 191 220 1,900 -960 Descending FlightAware ADS-B
06:18AM 29.9776 -95.2029 270° West 189 217 1,700 -840 Descending FlightAware ADS-B
06:18AM 29.9776 -95.2216 270° West 170 196 1,400 -1,020 Descending FlightAware ADS-B
06:19AM 29.9775 -95.2356 270° West 157 181 1,100 -900 Descending FlightAware ADS-B
06:19AM 29.9775 -95.2447 270° West 154 177 1,000 -960 Descending FlightAware ADS-B
06:19AM 29.9776 -95.2511 271° West 153 176 800 -840 Descending FlightAware ADS-B
06:19AM 29.9777 -95.2570 271° West 153 176 800 -600 Level FlightAware ADS-B
06:19AM 29.9777 -95.2688 270° West 151 174 600 -780 Descending FlightAware ADS-B
06:20AM 29.9776 -95.2813 269° West 151 174 400 -780 Descending FlightAware ADS-B
06:20AM 29.9775 -95.2934 269° West 151 174 200 -840 Descending FlightAware ADS-B